sensor_id;sensor_type;location;lat;lon;timestamp;P1;durP1;ratioP1;P2;durP2;ratioP2
4742;SDS011;24293;48.154;7.748;2023-10-19T00:01:42;37.60;;;19.57;;
4742;SDS011;24293;48.154;7.748;2023-10-19T00:04:09;29.40;;;18.40;;
4742;SDS011;24293;48.154;7.748;2023-10-19T00:06:35;34.73;;;19.60;;
4742;SDS011;24293;48.154;7.748;2023-10-19T00:09:01;32.63;;;20.13;;
4742;SDS011;24293;48.154;7.748;2023-10-19T00:11:28;29.87;;;19.60;;
4742;SDS011;24293;48.154;7.748;2023-10-19T00:13:56;34.23;;;19.10;;
4742;SDS011;24293;48.154;7.748;2023-10-19T00:16:23;30.07;;;19.47;;
4742;SDS011;24293;48.154;7.748;2023-10-19T00:18:53;28.23;;;18.77;;
4742;SDS011;24293;48.154;7.748;2023-10-19T00:21:24;31.97;;;19.90;;
4742;SDS011;24293;48.154;7.748;2023-10-19T00:23:50;33.17;;;20.07;;
4742;SDS011;24293;48.154;7.748;2023-10-19T00:26:20;30.30;;;19.03;;
4742;SDS011;24293;48.154;7.748;2023-10-19T00:28:50;32.70;;;19.17;;
4742;SDS011;24293;48.154;7.748;2023-10-19T00:31:18;31.27;;;18.70;;
4742;SDS011;24293;48.154;7.748;2023-10-19T00:33:45;33.57;;;18.90;;
4742;SDS011;24293;48.154;7.748;2023-10-19T00:36:13;33.50;;;18.60;;
4742;SDS011;24293;48.154;7.748;2023-10-19T00:38:40;28.63;;;16.57;;
4742;SDS011;24293;48.154;7.748;2023-10-19T00:41:15;33.93;;;18.27;;
4742;SDS011;24293;48.154;7.748;2023-10-19T00:43:46;32.23;;;18.20;;
4742;SDS011;24293;48.154;7.748;2023-10-19T00:46:14;28.13;;;16.70;;
4742;SDS011;24293;48.154;7.748;2023-10-19T00:48:47;25.90;;;16.30;;
4742;SDS011;24293;48.154;7.748;2023-10-19T00:51:16;25.63;;;16.57;;
4742;SDS011;24293;48.154;7.748;2023-10-19T00:53:54;29.13;;;17.63;;
4742;SDS011;24293;48.154;7.748;2023-10-19T00:56:21;28.17;;;17.67;;
4742;SDS011;24293;48.154;7.748;2023-10-19T00:58:48;30.70;;;17.87;;
4742;SDS011;24293;48.154;7.748;2023-10-19T01:01:19;31.10;;;17.50;;
4742;SDS011;24293;48.154;7.748;2023-10-19T01:03:48;31.23;;;18.17;;
4742;SDS011;24293;48.154;7.748;2023-10-19T01:06:19;22.03;;;15.83;;
4742;SDS011;24293;48.154;7.748;2023-10-19T01:08:45;27.40;;;16.00;;
4742;SDS011;24293;48.154;7.748;2023-10-19T01:11:12;22.33;;;14.80;;
4742;SDS011;24293;48.154;7.748;2023-10-19T01:13:40;22.90;;;15.13;;
4742;SDS011;24293;48.154;7.748;2023-10-19T01:16:12;23.63;;;14.10;;
4742;SDS011;24293;48.154;7.748;2023-10-19T01:18:46;24.53;;;14.87;;
4742;SDS011;24293;48.154;7.748;2023-10-19T01:21:12;26.33;;;15.63;;
4742;SDS011;24293;48.154;7.748;2023-10-19T01:23:45;25.27;;;14.97;;
4742;SDS011;24293;48.154;7.748;2023-10-19T01:26:13;29.27;;;14.93;;
4742;SDS011;24293;48.154;7.748;2023-10-19T01:28:43;26.77;;;15.80;;
4742;SDS011;24293;48.154;7.748;2023-10-19T01:31:13;26.53;;;15.73;;
4742;SDS011;24293;48.154;7.748;2023-10-19T01:33:42;29.93;;;16.07;;
4742;SDS011;24293;48.154;7.748;2023-10-19T01:36:09;30.73;;;16.07;;
4742;SDS011;24293;48.154;7.748;2023-10-19T01:38:51;33.00;;;17.43;;
4742;SDS011;24293;48.154;7.748;2023-10-19T01:41:18;29.57;;;17.03;;
4742;SDS011;24293;48.154;7.748;2023-10-19T01:43:45;25.83;;;16.90;;
4742;SDS011;24293;48.154;7.748;2023-10-19T01:46:12;34.27;;;17.93;;
4742;SDS011;24293;48.154;7.748;2023-10-19T01:48:38;27.57;;;16.77;;
4742;SDS011;24293;48.154;7.748;2023-10-19T01:51:06;27.00;;;16.87;;
4742;SDS011;24293;48.154;7.748;2023-10-19T01:53:35;29.70;;;18.83;;
4742;SDS011;24293;48.154;7.748;2023-10-19T01:56:04;31.13;;;17.30;;
4742;SDS011;24293;48.154;7.748;2023-10-19T01:58:30;36.53;;;18.67;;
4742;SDS011;24293;48.154;7.748;2023-10-19T02:01:01;26.20;;;17.30;;
4742;SDS011;24293;48.154;7.748;2023-10-19T02:03:31;33.80;;;18.10;;
4742;SDS011;24293;48.154;7.748;2023-10-19T02:05:58;29.30;;;18.13;;
4742;SDS011;24293;48.154;7.748;2023-10-19T02:08:24;32.37;;;17.57;;
4742;SDS011;24293;48.154;7.748;2023-10-19T02:10:52;28.90;;;17.30;;
4742;SDS011;24293;48.154;7.748;2023-10-19T02:13:19;30.63;;;16.17;;
4742;SDS011;24293;48.154;7.748;2023-10-19T02:15:45;25.57;;;13.97;;
4742;SDS011;24293;48.154;7.748;2023-10-19T02:18:12;21.50;;;13.53;;
4742;SDS011;24293;48.154;7.748;2023-10-19T02:20:37;21.70;;;13.20;;
4742;SDS011;24293;48.154;7.748;2023-10-19T02:23:06;20.73;;;12.00;;
4742;SDS011;24293;48.154;7.748;2023-10-19T02:25:32;18.40;;;12.40;;
4742;SDS011;24293;48.154;7.748;2023-10-19T02:28:02;19.20;;;12.13;;
4742;SDS011;24293;48.154;7.748;2023-10-19T02:30:29;23.27;;;12.13;;
4742;SDS011;24293;48.154;7.748;2023-10-19T02:32:56;20.93;;;11.70;;
4742;SDS011;24293;48.154;7.748;2023-10-19T02:35:22;20.87;;;11.30;;
4742;SDS011;24293;48.154;7.748;2023-10-19T02:37:48;29.63;;;12.40;;
4742;SDS011;24293;48.154;7.748;2023-10-19T02:40:13;22.07;;;12.70;;
4742;SDS011;24293;48.154;7.748;2023-10-19T02:42:44;20.40;;;12.10;;
4742;SDS011;24293;48.154;7.748;2023-10-19T02:45:12;16.80;;;10.20;;
4742;SDS011;24293;48.154;7.748;2023-10-19T02:47:42;20.90;;;13.20;;
4742;SDS011;24293;48.154;7.748;2023-10-19T02:50:08;21.57;;;12.23;;
4742;SDS011;24293;48.154;7.748;2023-10-19T02:52:39;19.20;;;11.97;;
4742;SDS011;24293;48.154;7.748;2023-10-19T02:55:06;21.93;;;12.27;;
4742;SDS011;24293;48.154;7.748;2023-10-19T02:57:33;19.47;;;11.90;;
4742;SDS011;24293;48.154;7.748;2023-10-19T02:59:58;16.77;;;10.70;;
4742;SDS011;24293;48.154;7.748;2023-10-19T03:02:25;15.70;;;9.83;;
4742;SDS011;24293;48.154;7.748;2023-10-19T03:04:53;17.47;;;10.57;;
4742;SDS011;24293;48.154;7.748;2023-10-19T03:07:20;16.73;;;10.80;;
4742;SDS011;24293;48.154;7.748;2023-10-19T03:09:45;17.37;;;10.30;;
4742;SDS011;24293;48.154;7.748;2023-10-19T03:12:14;15.20;;;9.17;;
4742;SDS011;24293;48.154;7.748;2023-10-19T03:14:40;15.77;;;9.30;;
4742;SDS011;24293;48.154;7.748;2023-10-19T03:17:08;16.83;;;10.10;;
4742;SDS011;24293;48.154;7.748;2023-10-19T03:19:34;17.00;;;10.00;;
4742;SDS011;24293;48.154;7.748;2023-10-19T03:22:02;13.13;;;9.40;;
4742;SDS011;24293;48.154;7.748;2023-10-19T03:24:31;17.37;;;8.70;;
4742;SDS011;24293;48.154;7.748;2023-10-19T03:27:06;13.27;;;8.53;;
4742;SDS011;24293;48.154;7.748;2023-10-19T03:29:37;17.40;;;8.90;;
4742;SDS011;24293;48.154;7.748;2023-10-19T03:32:05;13.87;;;9.00;;
4742;SDS011;24293;48.154;7.748;2023-10-19T03:34:32;14.23;;;9.20;;
4742;SDS011;24293;48.154;7.748;2023-10-19T03:36:58;15.20;;;9.23;;
4742;SDS011;24293;48.154;7.748;2023-10-19T03:39:36;16.00;;;9.53;;
4742;SDS011;24293;48.154;7.748;2023-10-19T03:42:03;21.47;;;10.50;;
4742;SDS011;24293;48.154;7.748;2023-10-19T03:44:31;18.33;;;9.80;;
4742;SDS011;24293;48.154;7.748;2023-10-19T03:47:08;14.37;;;8.77;;
4742;SDS011;24293;48.154;7.748;2023-10-19T03:49:37;21.60;;;9.50;;
4742;SDS011;24293;48.154;7.748;2023-10-19T03:52:04;20.77;;;9.40;;
4742;SDS011;24293;48.154;7.748;2023-10-19T03:54:58;14.17;;;9.40;;
4742;SDS011;24293;48.154;7.748;2023-10-19T03:57:24;14.50;;;8.60;;
4742;SDS011;24293;48.154;7.748;2023-10-19T03:59:54;13.40;;;8.30;;
4742;SDS011;24293;48.154;7.748;2023-10-19T04:02:22;15.03;;;9.37;;
4742;SDS011;24293;48.154;7.748;2023-10-19T04:04:49;14.60;;;8.67;;
4742;SDS011;24293;48.154;7.748;2023-10-19T04:07:17;17.80;;;9.47;;
4742;SDS011;24293;48.154;7.748;2023-10-19T04:09:46;18.40;;;8.93;;
4742;SDS011;24293;48.154;7.748;2023-10-19T04:12:26;16.17;;;10.10;;
4742;SDS011;24293;48.154;7.748;2023-10-19T04:14:55;17.70;;;9.63;;
4742;SDS011;24293;48.154;7.748;2023-10-19T04:17:22;18.30;;;9.90;;
4742;SDS011;24293;48.154;7.748;2023-10-19T04:19:49;16.87;;;11.33;;
4742;SDS011;24293;48.154;7.748;2023-10-19T04:22:16;15.37;;;10.00;;
4742;SDS011;24293;48.154;7.748;2023-10-19T04:24:48;19.10;;;11.40;;
4742;SDS011;24293;48.154;7.748;2023-10-19T04:27:14;16.30;;;11.27;;
4742;SDS011;24293;48.154;7.748;2023-10-19T04:29:42;17.07;;;11.50;;
4742;SDS011;24293;48.154;7.748;2023-10-19T04:32:10;19.97;;;11.30;;
4742;SDS011;24293;48.154;7.748;2023-10-19T04:34:39;17.83;;;11.60;;
4742;SDS011;24293;48.154;7.748;2023-10-19T04:37:05;19.40;;;10.90;;
4742;SDS011;24293;48.154;7.748;2023-10-19T04:39:33;22.00;;;10.87;;
4742;SDS011;24293;48.154;7.748;2023-10-19T04:41:59;17.00;;;11.57;;
4742;SDS011;24293;48.154;7.748;2023-10-19T04:44:26;21.77;;;11.90;;
4742;SDS011;24293;48.154;7.748;2023-10-19T04:46:54;23.57;;;13.60;;
4742;SDS011;24293;48.154;7.748;2023-10-19T04:49:20;29.13;;;13.90;;
4742;SDS011;24293;48.154;7.748;2023-10-19T04:51:47;17.57;;;12.13;;
4742;SDS011;24293;48.154;7.748;2023-10-19T04:54:13;19.53;;;14.20;;
4742;SDS011;24293;48.154;7.748;2023-10-19T04:56:40;18.23;;;11.63;;
4742;SDS011;24293;48.154;7.748;2023-10-19T04:59:06;16.20;;;10.37;;
4742;SDS011;24293;48.154;7.748;2023-10-19T05:01:33;19.37;;;12.37;;
4742;SDS011;24293;48.154;7.748;2023-10-19T05:04:01;17.87;;;11.30;;
4742;SDS011;24293;48.154;7.748;2023-10-19T05:06:27;20.73;;;12.30;;
4742;SDS011;24293;48.154;7.748;2023-10-19T05:08:54;24.07;;;12.20;;
4742;SDS011;24293;48.154;7.748;2023-10-19T05:11:22;21.33;;;13.37;;
4742;SDS011;24293;48.154;7.748;2023-10-19T05:13:48;20.30;;;12.53;;
4742;SDS011;24293;48.154;7.748;2023-10-19T05:16:15;22.97;;;12.67;;
4742;SDS011;24293;48.154;7.748;2023-10-19T05:18:42;25.70;;;12.10;;
4742;SDS011;24293;48.154;7.748;2023-10-19T05:21:09;17.80;;;12.20;;
4742;SDS011;24293;48.154;7.748;2023-10-19T05:23:37;21.83;;;12.30;;
4742;SDS011;24293;48.154;7.748;2023-10-19T05:26:04;20.07;;;12.07;;
4742;SDS011;24293;48.154;7.748;2023-10-19T05:28:32;19.43;;;11.30;;
4742;SDS011;24293;48.154;7.748;2023-10-19T05:30:58;20.23;;;12.73;;
4742;SDS011;24293;48.154;7.748;2023-10-19T05:33:26;19.00;;;12.20;;
4742;SDS011;24293;48.154;7.748;2023-10-19T05:35:54;17.40;;;12.30;;
4742;SDS011;24293;48.154;7.748;2023-10-19T05:38:22;21.90;;;12.03;;
4742;SDS011;24293;48.154;7.748;2023-10-19T05:40:48;18.80;;;12.20;;
4742;SDS011;24293;48.154;7.748;2023-10-19T05:43:17;21.50;;;12.00;;
4742;SDS011;24293;48.154;7.748;2023-10-19T05:45:43;24.60;;;11.73;;
4742;SDS011;24293;48.154;7.748;2023-10-19T05:48:15;26.20;;;13.87;;
4742;SDS011;24293;48.154;7.748;2023-10-19T05:50:41;26.87;;;13.63;;
4742;SDS011;24293;48.154;7.748;2023-10-19T05:53:08;21.60;;;13.33;;
4742;SDS011;24293;48.154;7.748;2023-10-19T05:55:36;17.80;;;11.80;;
4742;SDS011;24293;48.154;7.748;2023-10-19T05:58:04;26.63;;;14.20;;
4742;SDS011;24293;48.154;7.748;2023-10-19T06:00:31;20.13;;;12.63;;
4742;SDS011;24293;48.154;7.748;2023-10-19T06:02:57;20.50;;;12.83;;
4742;SDS011;24293;48.154;7.748;2023-10-19T06:05:24;17.70;;;11.20;;
4742;SDS011;24293;48.154;7.748;2023-10-19T06:07:51;16.90;;;11.43;;
4742;SDS011;24293;48.154;7.748;2023-10-19T06:10:18;20.97;;;11.80;;
4742;SDS011;24293;48.154;7.748;2023-10-19T06:12:47;22.03;;;11.47;;
4742;SDS011;24293;48.154;7.748;2023-10-19T06:15:15;19.90;;;11.53;;
4742;SDS011;24293;48.154;7.748;2023-10-19T06:17:42;24.07;;;12.80;;
4742;SDS011;24293;48.154;7.748;2023-10-19T06:20:09;20.77;;;12.70;;
4742;SDS011;24293;48.154;7.748;2023-10-19T06:22:45;19.40;;;12.53;;
4742;SDS011;24293;48.154;7.748;2023-10-19T06:25:15;22.57;;;14.67;;
4742;SDS011;24293;48.154;7.748;2023-10-19T06:27:42;24.00;;;14.30;;
4742;SDS011;24293;48.154;7.748;2023-10-19T06:30:11;24.80;;;12.90;;
4742;SDS011;24293;48.154;7.748;2023-10-19T06:32:41;17.07;;;11.23;;
4742;SDS011;24293;48.154;7.748;2023-10-19T06:35:07;16.70;;;12.23;;
4742;SDS011;24293;48.154;7.748;2023-10-19T06:37:34;22.10;;;12.60;;
4742;SDS011;24293;48.154;7.748;2023-10-19T06:40:01;22.67;;;13.77;;
4742;SDS011;24293;48.154;7.748;2023-10-19T06:42:27;21.80;;;14.10;;
4742;SDS011;24293;48.154;7.748;2023-10-19T06:44:56;20.27;;;13.10;;
4742;SDS011;24293;48.154;7.748;2023-10-19T06:47:23;21.07;;;13.40;;
4742;SDS011;24293;48.154;7.748;2023-10-19T06:49:50;20.70;;;12.63;;
4742;SDS011;24293;48.154;7.748;2023-10-19T06:52:17;23.53;;;12.00;;
4742;SDS011;24293;48.154;7.748;2023-10-19T06:54:43;21.33;;;12.20;;
4742;SDS011;24293;48.154;7.748;2023-10-19T06:57:09;16.40;;;10.97;;
4742;SDS011;24293;48.154;7.748;2023-10-19T06:59:37;18.90;;;10.67;;
4742;SDS011;24293;48.154;7.748;2023-10-19T07:02:04;15.93;;;9.83;;
4742;SDS011;24293;48.154;7.748;2023-10-19T07:04:34;14.97;;;9.63;;
4742;SDS011;24293;48.154;7.748;2023-10-19T07:07:01;14.47;;;9.87;;
4742;SDS011;24293;48.154;7.748;2023-10-19T07:09:27;18.93;;;9.73;;
4742;SDS011;24293;48.154;7.748;2023-10-19T07:11:54;15.30;;;10.30;;
4742;SDS011;24293;48.154;7.748;2023-10-19T07:14:22;21.83;;;15.60;;
4742;SDS011;24293;48.154;7.748;2023-10-19T07:16:49;26.43;;;15.80;;
4742;SDS011;24293;48.154;7.748;2023-10-19T07:19:16;26.33;;;14.67;;
4742;SDS011;24293;48.154;7.748;2023-10-19T07:21:44;21.57;;;14.30;;
4742;SDS011;24293;48.154;7.748;2023-10-19T07:24:14;25.87;;;15.67;;
4742;SDS011;24293;48.154;7.748;2023-10-19T07:26:40;32.30;;;17.57;;
4742;SDS011;24293;48.154;7.748;2023-10-19T07:29:16;26.20;;;16.97;;
4742;SDS011;24293;48.154;7.748;2023-10-19T07:31:44;24.73;;;14.67;;
4742;SDS011;24293;48.154;7.748;2023-10-19T07:34:10;31.07;;;17.90;;
4742;SDS011;24293;48.154;7.748;2023-10-19T07:36:40;33.17;;;15.30;;
4742;SDS011;24293;48.154;7.748;2023-10-19T07:39:09;32.10;;;19.30;;
4742;SDS011;24293;48.154;7.748;2023-10-19T07:41:39;26.00;;;11.77;;
4742;SDS011;24293;48.154;7.748;2023-10-19T07:44:05;24.23;;;13.03;;
4742;SDS011;24293;48.154;7.748;2023-10-19T07:46:32;19.80;;;10.93;;
4742;SDS011;24293;48.154;7.748;2023-10-19T07:48:58;16.23;;;11.13;;
4742;SDS011;24293;48.154;7.748;2023-10-19T07:51:26;17.23;;;10.90;;
4742;SDS011;24293;48.154;7.748;2023-10-19T07:53:52;18.50;;;11.13;;
4742;SDS011;24293;48.154;7.748;2023-10-19T07:56:21;19.10;;;10.83;;
4742;SDS011;24293;48.154;7.748;2023-10-19T07:58:48;18.13;;;10.60;;
4742;SDS011;24293;48.154;7.748;2023-10-19T08:01:15;24.53;;;10.77;;
4742;SDS011;24293;48.154;7.748;2023-10-19T08:03:41;19.33;;;10.67;;
4742;SDS011;24293;48.154;7.748;2023-10-19T08:06:08;19.67;;;11.33;;
4742;SDS011;24293;48.154;7.748;2023-10-19T08:08:34;25.13;;;16.60;;
4742;SDS011;24293;48.154;7.748;2023-10-19T08:11:01;21.40;;;12.57;;
4742;SDS011;24293;48.154;7.748;2023-10-19T08:13:28;22.10;;;11.67;;
4742;SDS011;24293;48.154;7.748;2023-10-19T08:15:57;20.33;;;12.50;;
4742;SDS011;24293;48.154;7.748;2023-10-19T08:18:23;18.90;;;11.73;;
4742;SDS011;24293;48.154;7.748;2023-10-19T08:20:50;27.27;;;13.03;;
4742;SDS011;24293;48.154;7.748;2023-10-19T08:23:17;24.67;;;12.50;;
4742;SDS011;24293;48.154;7.748;2023-10-19T08:25:48;25.20;;;11.50;;
4742;SDS011;24293;48.154;7.748;2023-10-19T08:28:16;21.80;;;10.30;;
4742;SDS011;24293;48.154;7.748;2023-10-19T08:30:43;19.73;;;11.97;;
4742;SDS011;24293;48.154;7.748;2023-10-19T08:33:21;23.47;;;13.03;;
4742;SDS011;24293;48.154;7.748;2023-10-19T08:35:49;19.27;;;11.70;;
4742;SDS011;24293;48.154;7.748;2023-10-19T08:38:15;24.80;;;12.33;;
4742;SDS011;24293;48.154;7.748;2023-10-19T08:40:42;22.80;;;13.90;;
4742;SDS011;24293;48.154;7.748;2023-10-19T08:43:08;24.17;;;13.90;;
4742;SDS011;24293;48.154;7.748;2023-10-19T08:45:38;24.43;;;13.60;;
4742;SDS011;24293;48.154;7.748;2023-10-19T08:48:06;22.73;;;13.70;;
4742;SDS011;24293;48.154;7.748;2023-10-19T08:50:34;20.80;;;13.30;;
4742;SDS011;24293;48.154;7.748;2023-10-19T08:53:00;22.00;;;14.63;;
4742;SDS011;24293;48.154;7.748;2023-10-19T08:55:28;22.10;;;13.87;;
4742;SDS011;24293;48.154;7.748;2023-10-19T08:57:55;24.50;;;14.73;;
4742;SDS011;24293;48.154;7.748;2023-10-19T09:00:23;18.63;;;11.90;;
4742;SDS011;24293;48.154;7.748;2023-10-19T09:02:51;18.23;;;10.53;;
4742;SDS011;24293;48.154;7.748;2023-10-19T09:05:20;18.40;;;11.00;;
4742;SDS011;24293;48.154;7.748;2023-10-19T09:07:47;19.63;;;8.80;;
4742;SDS011;24293;48.154;7.748;2023-10-19T09:10:19;15.63;;;9.20;;
4742;SDS011;24293;48.154;7.748;2023-10-19T09:12:50;14.10;;;9.57;;
4742;SDS011;24293;48.154;7.748;2023-10-19T09:15:24;14.67;;;9.20;;
4742;SDS011;24293;48.154;7.748;2023-10-19T09:17:51;12.83;;;5.20;;
4742;SDS011;24293;48.154;7.748;2023-10-19T09:20:21;5.63;;;3.57;;
4742;SDS011;24293;48.154;7.748;2023-10-19T09:22:52;6.73;;;2.80;;
4742;SDS011;24293;48.154;7.748;2023-10-19T09:25:20;4.53;;;2.43;;
4742;SDS011;24293;48.154;7.748;2023-10-19T09:27:48;9.13;;;2.27;;
4742;SDS011;24293;48.154;7.748;2023-10-19T09:30:15;6.80;;;3.20;;
4742;SDS011;24293;48.154;7.748;2023-10-19T09:32:43;10.57;;;5.73;;
4742;SDS011;24293;48.154;7.748;2023-10-19T09:35:11;15.40;;;8.70;;
4742;SDS011;24293;48.154;7.748;2023-10-19T09:37:42;31.47;;;14.30;;
4742;SDS011;24293;48.154;7.748;2023-10-19T09:40:09;27.17;;;12.97;;
4742;SDS011;24293;48.154;7.748;2023-10-19T09:42:38;37.10;;;15.90;;
4742;SDS011;24293;48.154;7.748;2023-10-19T09:45:11;36.57;;;18.73;;
4742;SDS011;24293;48.154;7.748;2023-10-19T09:47:38;40.10;;;19.40;;
4742;SDS011;24293;48.154;7.748;2023-10-19T09:50:07;25.20;;;13.83;;
4742;SDS011;24293;48.154;7.748;2023-10-19T09:52:36;25.33;;;11.17;;
4742;SDS011;24293;48.154;7.748;2023-10-19T09:55:06;25.93;;;12.27;;
4742;SDS011;24293;48.154;7.748;2023-10-19T09:57:36;43.57;;;16.97;;
4742;SDS011;24293;48.154;7.748;2023-10-19T10:00:04;32.77;;;13.47;;
4742;SDS011;24293;48.154;7.748;2023-10-19T10:02:37;29.60;;;12.77;;
4742;SDS011;24293;48.154;7.748;2023-10-19T10:05:07;15.60;;;9.87;;
4742;SDS011;24293;48.154;7.748;2023-10-19T10:10:36;13.90;;;6.73;;
4742;SDS011;24293;48.154;7.748;2023-10-19T10:15:47;8.80;;;3.93;;
4742;SDS011;24293;48.154;7.748;2023-10-19T10:18:15;6.07;;;3.40;;
4742;SDS011;24293;48.154;7.748;2023-10-19T10:20:41;8.60;;;3.30;;
4742;SDS011;24293;48.154;7.748;2023-10-19T10:23:18;5.77;;;2.97;;
4742;SDS011;24293;48.154;7.748;2023-10-19T10:25:47;6.60;;;2.60;;
4742;SDS011;24293;48.154;7.748;2023-10-19T10:28:16;7.03;;;3.13;;
4742;SDS011;24293;48.154;7.748;2023-10-19T10:36:13;5.50;;;2.70;;
4742;SDS011;24293;48.154;7.748;2023-10-19T10:38:40;7.33;;;3.80;;
4742;SDS011;24293;48.154;7.748;2023-10-19T10:41:08;11.67;;;4.73;;
4742;SDS011;24293;48.154;7.748;2023-10-19T10:43:48;10.10;;;3.90;;
4742;SDS011;24293;48.154;7.748;2023-10-19T10:46:16;6.20;;;3.17;;
4742;SDS011;24293;48.154;7.748;2023-10-19T10:48:43;5.27;;;3.43;;
4742;SDS011;24293;48.154;7.748;2023-10-19T10:51:19;9.10;;;5.10;;
4742;SDS011;24293;48.154;7.748;2023-10-19T10:53:47;15.73;;;4.50;;
4742;SDS011;24293;48.154;7.748;2023-10-19T10:56:15;6.80;;;4.37;;
4742;SDS011;24293;48.154;7.748;2023-10-19T10:58:42;11.13;;;5.10;;
4742;SDS011;24293;48.154;7.748;2023-10-19T11:01:08;11.10;;;5.00;;
4742;SDS011;24293;48.154;7.748;2023-10-19T11:03:35;17.77;;;5.70;;
4742;SDS011;24293;48.154;7.748;2023-10-19T11:06:05;11.17;;;6.27;;
4742;SDS011;24293;48.154;7.748;2023-10-19T11:08:33;18.23;;;7.53;;
4742;SDS011;24293;48.154;7.748;2023-10-19T11:11:03;14.57;;;8.00;;
4742;SDS011;24293;48.154;7.748;2023-10-19T11:13:32;16.20;;;9.47;;
4742;SDS011;24293;48.154;7.748;2023-10-19T11:16:00;16.10;;;8.93;;
4742;SDS011;24293;48.154;7.748;2023-10-19T11:18:31;15.97;;;8.93;;
4742;SDS011;24293;48.154;7.748;2023-10-19T11:20:58;15.97;;;8.97;;
4742;SDS011;24293;48.154;7.748;2023-10-19T11:23:39;15.70;;;10.27;;
4742;SDS011;24293;48.154;7.748;2023-10-19T11:26:06;15.50;;;9.50;;
4742;SDS011;24293;48.154;7.748;2023-10-19T11:28:34;16.77;;;9.33;;
4742;SDS011;24293;48.154;7.748;2023-10-19T11:31:10;19.13;;;9.40;;
4742;SDS011;24293;48.154;7.748;2023-10-19T11:33:36;20.60;;;9.07;;
4742;SDS011;24293;48.154;7.748;2023-10-19T11:36:04;14.30;;;8.93;;
4742;SDS011;24293;48.154;7.748;2023-10-19T11:38:30;16.97;;;9.33;;
4742;SDS011;24293;48.154;7.748;2023-10-19T11:40:57;17.30;;;9.97;;
4742;SDS011;24293;48.154;7.748;2023-10-19T11:43:23;19.80;;;9.93;;
4742;SDS011;24293;48.154;7.748;2023-10-19T11:45:51;15.73;;;9.53;;
4742;SDS011;24293;48.154;7.748;2023-10-19T11:48:18;19.67;;;11.47;;
4742;SDS011;24293;48.154;7.748;2023-10-19T11:50:45;17.10;;;10.90;;
4742;SDS011;24293;48.154;7.748;2023-10-19T11:53:12;18.53;;;11.40;;
4742;SDS011;24293;48.154;7.748;2023-10-19T11:55:39;19.47;;;10.77;;
4742;SDS011;24293;48.154;7.748;2023-10-19T11:58:07;20.53;;;12.63;;
4742;SDS011;24293;48.154;7.748;2023-10-19T12:00:36;22.60;;;11.90;;
4742;SDS011;24293;48.154;7.748;2023-10-19T12:03:04;35.17;;;19.37;;
4742;SDS011;24293;48.154;7.748;2023-10-19T12:05:31;34.87;;;19.90;;
4742;SDS011;24293;48.154;7.748;2023-10-19T12:08:02;36.37;;;16.53;;
4742;SDS011;24293;48.154;7.748;2023-10-19T12:10:28;22.93;;;12.20;;
4742;SDS011;24293;48.154;7.748;2023-10-19T12:13:00;22.33;;;11.10;;
4742;SDS011;24293;48.154;7.748;2023-10-19T12:15:26;22.27;;;11.50;;
4742;SDS011;24293;48.154;7.748;2023-10-19T12:17:53;15.13;;;8.50;;
4742;SDS011;24293;48.154;7.748;2023-10-19T12:20:21;14.57;;;9.30;;
4742;SDS011;24293;48.154;7.748;2023-10-19T12:22:47;11.23;;;7.00;;
4742;SDS011;24293;48.154;7.748;2023-10-19T12:25:17;8.30;;;3.63;;
4742;SDS011;24293;48.154;7.748;2023-10-19T12:27:43;13.53;;;2.40;;
4742;SDS011;24293;48.154;7.748;2023-10-19T12:30:10;4.50;;;1.90;;
4742;SDS011;24293;48.154;7.748;2023-10-19T12:32:44;4.47;;;1.70;;
4742;SDS011;24293;48.154;7.748;2023-10-19T12:35:14;4.63;;;1.60;;
4742;SDS011;24293;48.154;7.748;2023-10-19T12:37:42;5.00;;;2.07;;
4742;SDS011;24293;48.154;7.748;2023-10-19T12:40:11;5.70;;;1.97;;
4742;SDS011;24293;48.154;7.748;2023-10-19T12:42:51;5.20;;;1.80;;
4742;SDS011;24293;48.154;7.748;2023-10-19T12:45:19;4.00;;;1.73;;
4742;SDS011;24293;48.154;7.748;2023-10-19T12:47:46;4.50;;;1.90;;
4742;SDS011;24293;48.154;7.748;2023-10-19T12:50:13;4.37;;;1.57;;
4742;SDS011;24293;48.154;7.748;2023-10-19T12:52:42;3.83;;;1.70;;
4742;SDS011;24293;48.154;7.748;2023-10-19T12:55:08;3.73;;;1.77;;
4742;SDS011;24293;48.154;7.748;2023-10-19T12:57:36;6.30;;;1.60;;
4742;SDS011;24293;48.154;7.748;2023-10-19T13:00:02;6.00;;;1.90;;
4742;SDS011;24293;48.154;7.748;2023-10-19T13:02:49;3.50;;;1.57;;
4742;SDS011;24293;48.154;7.748;2023-10-19T13:05:15;3.30;;;1.77;;
4742;SDS011;24293;48.154;7.748;2023-10-19T13:07:44;4.73;;;1.53;;
4742;SDS011;24293;48.154;7.748;2023-10-19T13:10:11;6.03;;;1.73;;
4742;SDS011;24293;48.154;7.748;2023-10-19T13:12:37;4.20;;;1.73;;
4742;SDS011;24293;48.154;7.748;2023-10-19T13:15:04;4.87;;;1.60;;
4742;SDS011;24293;48.154;7.748;2023-10-19T13:17:32;4.50;;;2.10;;
4742;SDS011;24293;48.154;7.748;2023-10-19T13:20:00;3.27;;;1.70;;
4742;SDS011;24293;48.154;7.748;2023-10-19T13:22:40;3.43;;;1.50;;
4742;SDS011;24293;48.154;7.748;2023-10-19T13:25:08;3.40;;;1.70;;
4742;SDS011;24293;48.154;7.748;2023-10-19T13:27:38;3.40;;;1.60;;
4742;SDS011;24293;48.154;7.748;2023-10-19T13:30:07;8.80;;;2.07;;
4742;SDS011;24293;48.154;7.748;2023-10-19T13:32:35;5.87;;;1.80;;
4742;SDS011;24293;48.154;7.748;2023-10-19T13:35:02;3.90;;;1.40;;
4742;SDS011;24293;48.154;7.748;2023-10-19T13:37:28;3.93;;;1.30;;
4742;SDS011;24293;48.154;7.748;2023-10-19T13:39:55;4.03;;;1.90;;
4742;SDS011;24293;48.154;7.748;2023-10-19T13:42:23;4.00;;;1.57;;
4742;SDS011;24293;48.154;7.748;2023-10-19T13:44:49;6.30;;;1.60;;
4742;SDS011;24293;48.154;7.748;2023-10-19T13:47:15;3.17;;;1.30;;
4742;SDS011;24293;48.154;7.748;2023-10-19T13:49:42;3.97;;;1.57;;
4742;SDS011;24293;48.154;7.748;2023-10-19T13:52:08;3.87;;;1.80;;
4742;SDS011;24293;48.154;7.748;2023-10-19T13:54:35;4.80;;;1.50;;
4742;SDS011;24293;48.154;7.748;2023-10-19T13:57:02;3.70;;;1.93;;
4742;SDS011;24293;48.154;7.748;2023-10-19T13:59:30;4.57;;;1.70;;
4742;SDS011;24293;48.154;7.748;2023-10-19T14:01:58;3.83;;;1.50;;
4742;SDS011;24293;48.154;7.748;2023-10-19T14:04:25;3.47;;;1.80;;
4742;SDS011;24293;48.154;7.748;2023-10-19T14:06:51;5.00;;;1.87;;
4742;SDS011;24293;48.154;7.748;2023-10-19T14:09:19;4.63;;;1.47;;
4742;SDS011;24293;48.154;7.748;2023-10-19T14:11:48;3.77;;;1.50;;
4742;SDS011;24293;48.154;7.748;2023-10-19T14:14:14;2.73;;;1.30;;
4742;SDS011;24293;48.154;7.748;2023-10-19T14:16:43;4.30;;;1.53;;
4742;SDS011;24293;48.154;7.748;2023-10-19T14:19:10;4.33;;;1.40;;
4742;SDS011;24293;48.154;7.748;2023-10-19T14:21:37;4.63;;;1.60;;
4742;SDS011;24293;48.154;7.748;2023-10-19T14:24:05;3.43;;;1.50;;
4742;SDS011;24293;48.154;7.748;2023-10-19T14:26:33;4.20;;;1.70;;
4742;SDS011;24293;48.154;7.748;2023-10-19T14:29:00;8.60;;;4.30;;
4742;SDS011;24293;48.154;7.748;2023-10-19T14:31:26;10.33;;;4.50;;
4742;SDS011;24293;48.154;7.748;2023-10-19T14:33:55;6.83;;;4.63;;
4742;SDS011;24293;48.154;7.748;2023-10-19T14:36:23;7.10;;;4.47;;
4742;SDS011;24293;48.154;7.748;2023-10-19T14:38:50;5.03;;;3.50;;
4742;SDS011;24293;48.154;7.748;2023-10-19T14:41:16;3.57;;;1.70;;
4742;SDS011;24293;48.154;7.748;2023-10-19T14:43:43;3.90;;;1.90;;
4742;SDS011;24293;48.154;7.748;2023-10-19T14:46:09;4.47;;;1.50;;
4742;SDS011;24293;48.154;7.748;2023-10-19T14:48:36;4.27;;;1.40;;
4742;SDS011;24293;48.154;7.748;2023-10-19T14:51:04;4.30;;;1.60;;
4742;SDS011;24293;48.154;7.748;2023-10-19T14:53:32;4.97;;;1.60;;
4742;SDS011;24293;48.154;7.748;2023-10-19T14:55:58;3.33;;;1.40;;
4742;SDS011;24293;48.154;7.748;2023-10-19T14:58:26;2.83;;;1.40;;
4742;SDS011;24293;48.154;7.748;2023-10-19T15:00:54;4.77;;;1.77;;